<?xml version="1.0" encoding="UTF-8" standalone="no" ?>
<gpx xmlns="http://www.topografix.com/GPX/1/1" xmlns:xsi="http://www.w3.org/2001/XMLSchema-instance" xsi:schemaLocation="http://www.topografix.com/GPX/1/1 http://www.topografix.com/GPX/1/1/gpx.xsd" version="1.1" creator="VisuGPX - https://www.visugpx.com">
  <metadata>
    <name>Vtt liaucous 32km version 1</name>
  </metadata>
  <trk>
    <name><![CDATA[Raid au Rozier - Gorges du Tarn rive droite (Etape1/3) - 4470 - UtagawaVTT.com]]></name>
    <extensions>
      <line xmlns="http://www.topografix.com/GPX/gpx_style/0/2">
        <color>0000FF</color>
        <width>4</width>
      </line>
    </extensions>
    <trkseg>
      <trkpt lat="44.20423" lon="3.1946">
        <ele>516.8</ele>
        <time>2010-05-26T21:48:12Z</time>
      </trkpt>
      <trkpt lat="44.20499" lon="3.19427">
        <ele>511</ele>
      </trkpt>
      <trkpt lat="44.20548" lon="3.19424">
        <ele>508.8</ele>
      </trkpt>
      <trkpt lat="44.20593" lon="3.19388">
        <ele>512</ele>
        <time>2010-05-26T21:48:27Z</time>
      </trkpt>
      <trkpt lat="44.20606" lon="3.19348">
        <ele>515</ele>
        <time>2010-05-26T21:48:39Z</time>
      </trkpt>
      <trkpt lat="44.20594" lon="3.19281">
        <ele>518</ele>
        <time>2010-05-26T21:48:59Z</time>
      </trkpt>
      <trkpt lat="44.20607" lon="3.19235">
        <ele>519</ele>
        <time>2010-05-26T21:49:13Z</time>
      </trkpt>
      <trkpt lat="44.20645" lon="3.19229">
        <ele>521</ele>
        <time>2010-05-26T21:49:28Z</time>
      </trkpt>
      <trkpt lat="44.20697" lon="3.19264">
        <ele>523</ele>
        <time>2010-05-26T21:49:52Z</time>
      </trkpt>
      <trkpt lat="44.20741" lon="3.19251">
        <ele>525</ele>
        <time>2010-05-26T21:50:09Z</time>
      </trkpt>
      <trkpt lat="44.20831" lon="3.19169">
        <ele>530</ele>
        <time>2010-05-26T21:50:53Z</time>
      </trkpt>
      <trkpt lat="44.20859" lon="3.19109">
        <ele>532</ele>
        <time>2010-05-26T21:51:13Z</time>
      </trkpt>
      <trkpt lat="44.20866" lon="3.18993">
        <ele>524.8</ele>
        <time>2010-05-26T21:51:57Z</time>
      </trkpt>
      <trkpt lat="44.2093" lon="3.18977">
        <ele>519.7</ele>
        <time>2010-05-26T21:52:09Z</time>
      </trkpt>
      <trkpt lat="44.20985" lon="3.18953">
        <ele>513.9</ele>
        <time>2010-05-26T21:52:29Z</time>
      </trkpt>
      <trkpt lat="44.21" lon="3.18908">
        <ele>510.8</ele>
        <time>2010-05-26T21:52:40Z</time>
      </trkpt>
      <trkpt lat="44.20999" lon="3.18854">
        <ele>505.3</ele>
      </trkpt>
      <trkpt lat="44.2099" lon="3.18837">
        <ele>501.7</ele>
        <time>2010-05-26T21:53:01Z</time>
      </trkpt>
      <trkpt lat="44.20996" lon="3.18807">
        <ele>501.3</ele>
        <time>2010-05-26T21:53:12Z</time>
      </trkpt>
      <trkpt lat="44.20989" lon="3.18786">
        <ele>498.1</ele>
        <time>2010-05-26T21:53:34Z</time>
      </trkpt>
      <trkpt lat="44.20982" lon="3.1875">
        <ele>493</ele>
        <time>2010-05-26T21:53:51Z</time>
      </trkpt>
      <trkpt lat="44.20975" lon="3.18728">
        <ele>489.8</ele>
        <time>2010-05-26T21:54:10Z</time>
      </trkpt>
      <trkpt lat="44.21019" lon="3.18721">
        <ele>489.2</ele>
        <time>2010-05-26T21:54:44Z</time>
      </trkpt>
      <trkpt lat="44.21048" lon="3.18712">
        <ele>485.6</ele>
        <time>2010-05-26T21:55:01Z</time>
      </trkpt>
      <trkpt lat="44.21089" lon="3.18709">
        <ele>482.4</ele>
        <time>2010-05-26T21:55:30Z</time>
      </trkpt>
      <trkpt lat="44.21132" lon="3.18664">
        <ele>481.5</ele>
        <time>2010-05-26T21:55:47Z</time>
      </trkpt>
      <trkpt lat="44.21155" lon="3.1862">
        <ele>481.4</ele>
        <time>2010-05-26T21:56:45Z</time>
      </trkpt>
      <trkpt lat="44.21177" lon="3.18595">
        <ele>477.6</ele>
        <time>2010-05-26T21:57:03Z</time>
      </trkpt>
      <trkpt lat="44.21224" lon="3.18578">
        <ele>477.4</ele>
        <time>2010-05-26T21:58:01Z</time>
      </trkpt>
      <trkpt lat="44.2128" lon="3.18562">
        <ele>480</ele>
      </trkpt>
      <trkpt lat="44.21346" lon="3.18544">
        <ele>484.4</ele>
      </trkpt>
      <trkpt lat="44.21368" lon="3.1855">
        <ele>485.2</ele>
      </trkpt>
      <trkpt lat="44.21422" lon="3.18561">
        <ele>489.8</ele>
      </trkpt>
      <trkpt lat="44.21432" lon="3.18547">
        <ele>492</ele>
      </trkpt>
      <trkpt lat="44.21492" lon="3.18498">
        <ele>493.5</ele>
      </trkpt>
      <trkpt lat="44.21514" lon="3.18468">
        <ele>498.6</ele>
      </trkpt>
      <trkpt lat="44.21565" lon="3.18441">
        <ele>509.1</ele>
      </trkpt>
      <trkpt lat="44.21598" lon="3.18394">
        <ele>513</ele>
      </trkpt>
      <trkpt lat="44.21636" lon="3.18387">
        <ele>514</ele>
        <time>2010-05-26T21:58:34Z</time>
      </trkpt>
      <trkpt lat="44.21648" lon="3.18368">
        <ele>512.8</ele>
      </trkpt>
      <trkpt lat="44.21655" lon="3.18317">
        <ele>511.1</ele>
      </trkpt>
      <trkpt lat="44.21687" lon="3.18292">
        <ele>515.1</ele>
        <time>2010-05-26T21:59:19Z</time>
      </trkpt>
      <trkpt lat="44.21717" lon="3.18269">
        <ele>518.2</ele>
      </trkpt>
      <trkpt lat="44.21741" lon="3.1825">
        <ele>519.2</ele>
      </trkpt>
      <trkpt lat="44.21769" lon="3.18239">
        <ele>522.1</ele>
      </trkpt>
      <trkpt lat="44.21789" lon="3.18214">
        <ele>525.8</ele>
      </trkpt>
      <trkpt lat="44.21828" lon="3.18134">
        <ele>532.1</ele>
      </trkpt>
      <trkpt lat="44.21913" lon="3.18074">
        <ele>560.2</ele>
      </trkpt>
      <trkpt lat="44.21924" lon="3.18085">
        <ele>560.1</ele>
      </trkpt>
      <trkpt lat="44.21925" lon="3.18112">
        <ele>561.6</ele>
      </trkpt>
      <trkpt lat="44.21937" lon="3.18153">
        <ele>560</ele>
        <time>2010-05-26T21:59:26Z</time>
      </trkpt>
      <trkpt lat="44.21955" lon="3.18167">
        <ele>564</ele>
      </trkpt>
      <trkpt lat="44.21959" lon="3.18154">
        <ele>569.4</ele>
        <time>2010-05-26T22:00:02Z</time>
      </trkpt>
      <trkpt lat="44.21978" lon="3.18142">
        <ele>581.7</ele>
        <time>2010-05-26T22:00:52Z</time>
      </trkpt>
      <trkpt lat="44.22027" lon="3.18137">
        <ele>597.7</ele>
        <time>2010-05-26T22:01:06Z</time>
      </trkpt>
      <trkpt lat="44.22052" lon="3.18115">
        <ele>600.4</ele>
        <time>2010-05-26T22:01:21Z</time>
      </trkpt>
      <trkpt lat="44.22145" lon="3.18013">
        <ele>603.3</ele>
        <time>2010-05-26T22:02:06Z</time>
      </trkpt>
      <trkpt lat="44.22217" lon="3.17946">
        <ele>619.1</ele>
        <time>2010-05-26T22:02:44Z</time>
      </trkpt>
      <trkpt lat="44.22253" lon="3.17949">
        <ele>617.2</ele>
        <time>2010-05-26T22:03:26Z</time>
      </trkpt>
      <trkpt lat="44.22278" lon="3.17944">
        <ele>621.2</ele>
        <time>2010-05-26T22:03:36Z</time>
      </trkpt>
      <trkpt lat="44.22293" lon="3.17944">
        <ele>623.9</ele>
        <time>2010-05-26T22:03:56Z</time>
      </trkpt>
      <trkpt lat="44.22309" lon="3.17968">
        <ele>625.6</ele>
        <time>2010-05-26T22:04:21Z</time>
      </trkpt>
      <trkpt lat="44.22325" lon="3.17964">
        <ele>628.3</ele>
        <time>2010-05-26T22:04:53Z</time>
      </trkpt>
      <trkpt lat="44.22364" lon="3.17964">
        <ele>632</ele>
        <time>2010-05-26T22:05:16Z</time>
      </trkpt>
      <trkpt lat="44.22399" lon="3.17941">
        <ele>634.4</ele>
        <time>2010-05-26T22:05:57Z</time>
      </trkpt>
      <trkpt lat="44.22415" lon="3.17905">
        <ele>641.3</ele>
        <time>2010-05-26T22:06:30Z</time>
      </trkpt>
      <trkpt lat="44.22462" lon="3.17887">
        <ele>644.5</ele>
        <time>2010-05-26T22:07:05Z</time>
      </trkpt>
      <trkpt lat="44.22505" lon="3.17846">
        <ele>659.5</ele>
        <time>2010-05-26T22:07:54Z</time>
      </trkpt>
      <trkpt lat="44.22532" lon="3.1784">
        <ele>669.4</ele>
      </trkpt>
      <trkpt lat="44.22541" lon="3.17847">
        <ele>670.1</ele>
        <time>2010-05-26T22:08:29Z</time>
      </trkpt>
      <trkpt lat="44.2258" lon="3.17879">
        <ele>670.1</ele>
        <time>2010-05-26T22:08:43Z</time>
      </trkpt>
      <trkpt lat="44.22643" lon="3.17874">
        <ele>686.1</ele>
      </trkpt>
      <trkpt lat="44.2269" lon="3.17894">
        <ele>682.5</ele>
      </trkpt>
      <trkpt lat="44.22735" lon="3.17892">
        <ele>689.8</ele>
      </trkpt>
      <trkpt lat="44.22737" lon="3.17906">
        <ele>686.7</ele>
      </trkpt>
      <trkpt lat="44.22734" lon="3.17919">
        <ele>683.2</ele>
      </trkpt>
      <trkpt lat="44.22736" lon="3.17923">
        <ele>683.8</ele>
      </trkpt>
      <trkpt lat="44.22705" lon="3.17962">
        <ele>687</ele>
      </trkpt>
      <trkpt lat="44.22748" lon="3.17957">
        <ele>690.1</ele>
      </trkpt>
      <trkpt lat="44.22816" lon="3.17998">
        <ele>700</ele>
      </trkpt>
      <trkpt lat="44.22853" lon="3.18039">
        <ele>708</ele>
      </trkpt>
      <trkpt lat="44.22883" lon="3.18017">
        <ele>706</ele>
      </trkpt>
      <trkpt lat="44.22905" lon="3.1799">
        <ele>704</ele>
        <time>2010-05-26T22:08:59Z</time>
      </trkpt>
      <trkpt lat="44.22935" lon="3.17972">
        <ele>707</ele>
        <time>2010-05-26T22:09:12Z</time>
      </trkpt>
      <trkpt lat="44.22972" lon="3.17983">
        <ele>710</ele>
        <time>2010-05-26T22:09:27Z</time>
      </trkpt>
      <trkpt lat="44.23004" lon="3.17952">
        <ele>712</ele>
        <time>2010-05-26T22:09:42Z</time>
      </trkpt>
      <trkpt lat="44.23006" lon="3.17914">
        <ele>715</ele>
        <time>2010-05-26T22:09:53Z</time>
      </trkpt>
      <trkpt lat="44.22862" lon="3.17941">
        <ele>726</ele>
        <time>2010-05-26T22:10:52Z</time>
      </trkpt>
      <trkpt lat="44.2292" lon="3.17893">
        <ele>731</ele>
        <time>2010-05-26T22:11:19Z</time>
      </trkpt>
      <trkpt lat="44.22978" lon="3.17865">
        <ele>736</ele>
        <time>2010-05-26T22:11:44Z</time>
      </trkpt>
      <trkpt lat="44.23011" lon="3.17853">
        <ele>739</ele>
        <time>2010-05-26T22:11:57Z</time>
      </trkpt>
      <trkpt lat="44.23043" lon="3.17858">
        <ele>743</ele>
        <time>2010-05-26T22:12:10Z</time>
      </trkpt>
      <trkpt lat="44.23105" lon="3.17907">
        <ele>749</ele>
        <time>2010-05-26T22:12:39Z</time>
      </trkpt>
      <trkpt lat="44.23143" lon="3.17888">
        <ele>752</ele>
        <time>2010-05-26T22:12:55Z</time>
      </trkpt>
      <trkpt lat="44.23215" lon="3.17912">
        <ele>758</ele>
        <time>2010-05-26T22:13:24Z</time>
      </trkpt>
      <trkpt lat="44.23253" lon="3.17911">
        <ele>761</ele>
        <time>2010-05-26T22:13:39Z</time>
      </trkpt>
      <trkpt lat="44.23336" lon="3.17854">
        <ele>763</ele>
        <time>2010-05-26T22:14:17Z</time>
      </trkpt>
      <trkpt lat="44.23382" lon="3.17852">
        <ele>765</ele>
        <time>2010-05-26T22:14:35Z</time>
      </trkpt>
      <trkpt lat="44.23456" lon="3.17791">
        <ele>773</ele>
        <time>2010-05-26T22:15:09Z</time>
      </trkpt>
      <trkpt lat="44.23531" lon="3.17758">
        <ele>786</ele>
        <time>2010-05-26T22:15:41Z</time>
      </trkpt>
      <trkpt lat="44.23551" lon="3.17793">
        <ele>787</ele>
        <time>2010-05-26T22:15:53Z</time>
      </trkpt>
      <trkpt lat="44.23559" lon="3.17844">
        <ele>788</ele>
        <time>2010-05-26T22:16:09Z</time>
      </trkpt>
      <trkpt lat="44.23592" lon="3.17873">
        <ele>790</ele>
        <time>2010-05-26T22:16:24Z</time>
      </trkpt>
      <trkpt lat="44.23601" lon="3.17913">
        <ele>794</ele>
        <time>2010-05-26T22:16:36Z</time>
      </trkpt>
      <trkpt lat="44.2363" lon="3.17911">
        <ele>796</ele>
        <time>2010-05-26T22:16:48Z</time>
      </trkpt>
      <trkpt lat="44.23709" lon="3.17864">
        <ele>801</ele>
        <time>2010-05-26T22:17:22Z</time>
      </trkpt>
      <trkpt lat="44.23744" lon="3.17699">
        <ele>808</ele>
        <time>2010-05-26T22:18:11Z</time>
      </trkpt>
      <trkpt lat="44.23795" lon="3.17721">
        <ele>813</ele>
        <time>2010-05-26T22:18:33Z</time>
      </trkpt>
      <trkpt lat="44.23786" lon="3.17814">
        <ele>811</ele>
        <time>2010-05-26T22:18:59Z</time>
      </trkpt>
      <trkpt lat="44.23798" lon="3.17863">
        <ele>818</ele>
        <time>2010-05-26T22:19:14Z</time>
      </trkpt>
      <trkpt lat="44.23834" lon="3.17898">
        <ele>819</ele>
        <time>2010-05-26T22:19:32Z</time>
      </trkpt>
      <trkpt lat="44.23893" lon="3.17925">
        <ele>816</ele>
        <time>2010-05-26T22:19:57Z</time>
      </trkpt>
      <trkpt lat="44.23926" lon="3.17913">
        <ele>817</ele>
        <time>2010-05-26T22:20:11Z</time>
      </trkpt>
      <trkpt lat="44.24009" lon="3.17965">
        <ele>813</ele>
        <time>2010-05-26T22:20:47Z</time>
      </trkpt>
      <trkpt lat="44.24068" lon="3.17973">
        <ele>806</ele>
        <time>2010-05-26T22:21:11Z</time>
      </trkpt>
      <trkpt lat="44.24096" lon="3.18019">
        <ele>811</ele>
        <time>2010-05-26T22:21:28Z</time>
      </trkpt>
      <trkpt lat="44.24171" lon="3.1804">
        <ele>814</ele>
        <time>2010-05-26T22:21:58Z</time>
      </trkpt>
      <trkpt lat="44.24151" lon="3.18062">
        <ele>813</ele>
        <time>2010-05-26T22:22:08Z</time>
      </trkpt>
      <trkpt lat="44.24114" lon="3.18062">
        <ele>810</ele>
        <time>2010-05-26T22:22:23Z</time>
      </trkpt>
      <trkpt lat="44.24086" lon="3.1808">
        <ele>811</ele>
        <time>2010-05-26T22:22:36Z</time>
      </trkpt>
      <trkpt lat="44.2405" lon="3.18088">
        <ele>811</ele>
        <time>2010-05-26T22:22:50Z</time>
      </trkpt>
      <trkpt lat="44.24011" lon="3.18071">
        <ele>815</ele>
        <time>2010-05-26T22:23:06Z</time>
      </trkpt>
      <trkpt lat="44.23997" lon="3.18077">
        <ele>815</ele>
        <time>2010-05-26T22:23:12Z</time>
      </trkpt>
      <trkpt lat="44.24009" lon="3.18109">
        <ele>816</ele>
        <time>2010-05-26T22:23:23Z</time>
      </trkpt>
      <trkpt lat="44.24" lon="3.1813">
        <ele>816</ele>
        <time>2010-05-26T22:23:29Z</time>
      </trkpt>
      <trkpt lat="44.23913" lon="3.18174">
        <ele>813</ele>
        <time>2010-05-26T22:24:07Z</time>
      </trkpt>
      <trkpt lat="44.23906" lon="3.18215">
        <ele>811</ele>
        <time>2010-05-26T22:24:19Z</time>
      </trkpt>
      <trkpt lat="44.23953" lon="3.18257">
        <ele>811</ele>
        <time>2010-05-26T22:24:41Z</time>
      </trkpt>
      <trkpt lat="44.23957" lon="3.18285">
        <ele>811</ele>
        <time>2010-05-26T22:24:49Z</time>
      </trkpt>
      <trkpt lat="44.239" lon="3.18317">
        <ele>816</ele>
        <time>2010-05-26T22:25:13Z</time>
      </trkpt>
      <trkpt lat="44.23868" lon="3.18393">
        <ele>819</ele>
        <time>2010-05-26T22:25:39Z</time>
      </trkpt>
      <trkpt lat="44.2381" lon="3.18396">
        <ele>817</ele>
        <time>2010-05-26T22:26:02Z</time>
      </trkpt>
      <trkpt lat="44.23756" lon="3.18421">
        <ele>817</ele>
        <time>2010-05-26T22:26:25Z</time>
      </trkpt>
      <trkpt lat="44.23656" lon="3.18648">
        <ele>832</ele>
        <time>2010-05-26T22:27:41Z</time>
      </trkpt>
      <trkpt lat="44.23567" lon="3.18727">
        <ele>846</ele>
        <time>2010-05-26T22:28:23Z</time>
      </trkpt>
      <trkpt lat="44.23505" lon="3.18824">
        <ele>857</ele>
        <time>2010-05-26T22:29:01Z</time>
      </trkpt>
      <trkpt lat="44.23459" lon="3.1886">
        <ele>854</ele>
        <time>2010-05-26T22:29:22Z</time>
      </trkpt>
      <trkpt lat="44.23389" lon="3.18976">
        <ele>865</ele>
        <time>2010-05-26T22:30:05Z</time>
      </trkpt>
      <trkpt lat="44.23381" lon="3.19037">
        <ele>870</ele>
        <time>2010-05-26T22:30:23Z</time>
      </trkpt>
      <trkpt lat="44.23374" lon="3.19043">
        <ele>873</ele>
        <time>2010-05-26T22:30:26Z</time>
      </trkpt>
      <trkpt lat="44.23343" lon="3.18996">
        <ele>879</ele>
        <time>2010-05-26T22:30:45Z</time>
      </trkpt>
      <trkpt lat="44.23333" lon="3.19014">
        <ele>882</ele>
        <time>2010-05-26T22:30:51Z</time>
      </trkpt>
      <trkpt lat="44.23324" lon="3.19078">
        <ele>885</ele>
        <time>2010-05-26T22:31:10Z</time>
      </trkpt>
      <trkpt lat="44.23347" lon="3.19227">
        <ele>899</ele>
        <time>2010-05-26T22:31:54Z</time>
      </trkpt>
      <trkpt lat="44.23309" lon="3.19303">
        <ele>906</ele>
        <time>2010-05-26T22:32:21Z</time>
      </trkpt>
      <trkpt lat="44.23261" lon="3.19431">
        <ele>908</ele>
        <time>2010-05-26T22:33:02Z</time>
      </trkpt>
      <trkpt lat="44.23159" lon="3.19568">
        <ele>908</ele>
        <time>2010-05-26T22:33:58Z</time>
      </trkpt>
      <trkpt lat="44.23136" lon="3.19665">
        <ele>911</ele>
        <time>2010-05-26T22:34:28Z</time>
      </trkpt>
      <trkpt lat="44.23159" lon="3.19705">
        <ele>913</ele>
        <time>2010-05-26T22:34:42Z</time>
      </trkpt>
      <trkpt lat="44.23168" lon="3.19795">
        <ele>917</ele>
        <time>2010-05-26T22:35:08Z</time>
      </trkpt>
      <trkpt lat="44.23157" lon="3.20001">
        <ele>926</ele>
        <time>2010-05-26T22:36:08Z</time>
      </trkpt>
      <trkpt lat="44.23218" lon="3.20012">
        <ele>930</ele>
        <time>2010-05-26T22:36:33Z</time>
      </trkpt>
      <trkpt lat="44.23268" lon="3.19998">
        <ele>931</ele>
        <time>2010-05-26T22:36:53Z</time>
      </trkpt>
      <trkpt lat="44.23302" lon="3.20016">
        <ele>933</ele>
        <time>2010-05-26T22:37:07Z</time>
      </trkpt>
      <trkpt lat="44.23338" lon="3.20075">
        <ele>935</ele>
        <time>2010-05-26T22:37:29Z</time>
      </trkpt>
      <trkpt lat="44.23346" lon="3.20193">
        <ele>938</ele>
        <time>2010-05-26T22:38:04Z</time>
      </trkpt>
      <trkpt lat="44.23381" lon="3.20348">
        <ele>943</ele>
        <time>2010-05-26T22:38:50Z</time>
      </trkpt>
      <trkpt lat="44.2337" lon="3.20586">
        <ele>940</ele>
        <time>2010-05-26T22:39:59Z</time>
      </trkpt>
      <trkpt lat="44.23407" lon="3.20737">
        <ele>937</ele>
        <time>2010-05-26T22:40:44Z</time>
      </trkpt>
      <trkpt lat="44.23408" lon="3.20819">
        <ele>936</ele>
        <time>2010-05-26T22:41:08Z</time>
      </trkpt>
      <trkpt lat="44.23439" lon="3.20938">
        <ele>929</ele>
        <time>2010-05-26T22:41:44Z</time>
      </trkpt>
      <trkpt lat="44.23488" lon="3.2098">
        <ele>923</ele>
        <time>2010-05-26T22:42:07Z</time>
      </trkpt>
      <trkpt lat="44.23483" lon="3.20997">
        <ele>922</ele>
        <time>2010-05-26T22:42:13Z</time>
      </trkpt>
      <trkpt lat="44.23441" lon="3.21002">
        <ele>920</ele>
        <time>2010-05-26T22:42:29Z</time>
      </trkpt>
      <trkpt lat="44.23424" lon="3.21073">
        <ele>915</ele>
        <time>2010-05-26T22:42:51Z</time>
      </trkpt>
      <trkpt lat="44.23363" lon="3.21203">
        <ele>911</ele>
        <time>2010-05-26T22:43:35Z</time>
      </trkpt>
      <trkpt lat="44.23265" lon="3.21281">
        <ele>909</ele>
        <time>2010-05-26T22:44:20Z</time>
      </trkpt>
      <trkpt lat="44.23169" lon="3.21298">
        <ele>907</ele>
        <time>2010-05-26T22:44:59Z</time>
      </trkpt>
      <trkpt lat="44.23148" lon="3.21258">
        <ele>903</ele>
        <time>2010-05-26T22:45:13Z</time>
      </trkpt>
      <trkpt lat="44.23031" lon="3.2131">
        <ele>898</ele>
        <time>2010-05-26T22:46:02Z</time>
      </trkpt>
      <trkpt lat="44.22982" lon="3.21296">
        <ele>896</ele>
        <time>2010-05-26T22:46:22Z</time>
      </trkpt>
      <trkpt lat="44.22951" lon="3.21302">
        <ele>895</ele>
        <time>2010-05-26T22:46:35Z</time>
      </trkpt>
      <trkpt lat="44.22908" lon="3.21362">
        <ele>892</ele>
        <time>2010-05-26T22:46:59Z</time>
      </trkpt>
      <trkpt lat="44.22886" lon="3.21373">
        <ele>889</ele>
        <time>2010-05-26T22:47:08Z</time>
      </trkpt>
      <trkpt lat="44.22855" lon="3.21367">
        <ele>885</ele>
        <time>2010-05-26T22:47:21Z</time>
      </trkpt>
      <trkpt lat="44.22817" lon="3.21385">
        <ele>881</ele>
        <time>2010-05-26T22:47:37Z</time>
      </trkpt>
      <trkpt lat="44.22867" lon="3.21428">
        <ele>875</ele>
        <time>2010-05-26T22:48:00Z</time>
      </trkpt>
      <trkpt lat="44.22994" lon="3.21486">
        <ele>875</ele>
        <time>2010-05-26T22:48:54Z</time>
      </trkpt>
      <trkpt lat="44.22973" lon="3.21492">
        <ele>874</ele>
        <time>2010-05-26T22:49:03Z</time>
      </trkpt>
      <trkpt lat="44.22931" lon="3.21543">
        <ele>867</ele>
        <time>2010-05-26T22:49:25Z</time>
      </trkpt>
      <trkpt lat="44.22932" lon="3.21599">
        <ele>868</ele>
        <time>2010-05-26T22:49:41Z</time>
      </trkpt>
      <trkpt lat="44.22915" lon="3.21626">
        <ele>871</ele>
        <time>2010-05-26T22:49:51Z</time>
      </trkpt>
      <trkpt lat="44.22945" lon="3.21636">
        <ele>874</ele>
        <time>2010-05-26T22:50:04Z</time>
      </trkpt>
      <trkpt lat="44.23104" lon="3.21745">
        <ele>879</ele>
        <time>2010-05-26T22:51:15Z</time>
      </trkpt>
      <trkpt lat="44.23122" lon="3.21783">
        <ele>879</ele>
        <time>2010-05-26T22:51:28Z</time>
      </trkpt>
      <trkpt lat="44.23155" lon="3.21813">
        <ele>874</ele>
        <time>2010-05-26T22:51:44Z</time>
      </trkpt>
      <trkpt lat="44.23197" lon="3.21806">
        <ele>876</ele>
        <time>2010-05-26T22:52:00Z</time>
      </trkpt>
      <trkpt lat="44.23216" lon="3.21837">
        <ele>876</ele>
        <time>2010-05-26T22:52:12Z</time>
      </trkpt>
      <trkpt lat="44.23267" lon="3.21836">
        <ele>875</ele>
        <time>2010-05-26T22:52:33Z</time>
      </trkpt>
      <trkpt lat="44.23283" lon="3.21846">
        <ele>876</ele>
        <time>2010-05-26T22:52:40Z</time>
      </trkpt>
      <trkpt lat="44.23284" lon="3.21875">
        <ele>878</ele>
        <time>2010-05-26T22:52:48Z</time>
      </trkpt>
      <trkpt lat="44.23319" lon="3.21939">
        <ele>878</ele>
        <time>2010-05-26T22:53:11Z</time>
      </trkpt>
      <trkpt lat="44.23371" lon="3.21965">
        <ele>877</ele>
        <time>2010-05-26T22:53:33Z</time>
      </trkpt>
      <trkpt lat="44.23407" lon="3.22012">
        <ele>877</ele>
        <time>2010-05-26T22:53:53Z</time>
      </trkpt>
      <trkpt lat="44.23472" lon="3.22038">
        <ele>880</ele>
        <time>2010-05-26T22:54:20Z</time>
      </trkpt>
      <trkpt lat="44.23564" lon="3.21986">
        <ele>891</ele>
        <time>2010-05-26T22:55:00Z</time>
      </trkpt>
      <trkpt lat="44.23594" lon="3.21924">
        <ele>895</ele>
        <time>2010-05-26T22:55:21Z</time>
      </trkpt>
      <trkpt lat="44.2361" lon="3.21938">
        <ele>897</ele>
        <time>2010-05-26T22:55:29Z</time>
      </trkpt>
      <trkpt lat="44.23646" lon="3.21935">
        <ele>900</ele>
        <time>2010-05-26T22:55:44Z</time>
      </trkpt>
      <trkpt lat="44.23738" lon="3.21882">
        <ele>904</ele>
        <time>2010-05-26T22:56:23Z</time>
      </trkpt>
      <trkpt lat="44.2397" lon="3.21873">
        <ele>910</ele>
        <time>2010-05-26T22:57:56Z</time>
      </trkpt>
      <trkpt lat="44.24022" lon="3.21845">
        <ele>907</ele>
        <time>2010-05-26T22:58:18Z</time>
      </trkpt>
      <trkpt lat="44.24048" lon="3.21793">
        <ele>905</ele>
        <time>2010-05-26T22:58:37Z</time>
      </trkpt>
      <trkpt lat="44.24071" lon="3.21795">
        <ele>904</ele>
        <time>2010-05-26T22:58:46Z</time>
      </trkpt>
      <trkpt lat="44.24093" lon="3.21819">
        <ele>906</ele>
        <time>2010-05-26T22:58:57Z</time>
      </trkpt>
      <trkpt lat="44.24158" lon="3.21794">
        <ele>907</ele>
        <time>2010-05-26T22:59:24Z</time>
      </trkpt>
      <trkpt lat="44.24203" lon="3.21868">
        <ele>908</ele>
        <time>2010-05-26T22:59:52Z</time>
      </trkpt>
      <trkpt lat="44.24239" lon="3.2189">
        <ele>912</ele>
        <time>2010-05-26T23:00:08Z</time>
      </trkpt>
      <trkpt lat="44.24328" lon="3.21862">
        <ele>910</ele>
        <time>2010-05-26T23:00:44Z</time>
      </trkpt>
      <trkpt lat="44.24359" lon="3.21843">
        <ele>911</ele>
        <time>2010-05-26T23:00:58Z</time>
      </trkpt>
      <trkpt lat="44.24344" lon="3.21828">
        <ele>910</ele>
        <time>2010-05-26T23:01:05Z</time>
      </trkpt>
      <trkpt lat="44.2444" lon="3.21888">
        <ele>906</ele>
        <time>2010-05-26T23:01:48Z</time>
      </trkpt>
      <trkpt lat="44.24552" lon="3.21872">
        <ele>903</ele>
        <time>2010-05-26T23:02:33Z</time>
      </trkpt>
      <trkpt lat="44.24788" lon="3.21653">
        <ele>902</ele>
        <time>2010-05-26T23:04:26Z</time>
      </trkpt>
      <trkpt lat="44.2481" lon="3.21618">
        <ele>902</ele>
        <time>2010-05-26T23:04:39Z</time>
      </trkpt>
      <trkpt lat="44.24819" lon="3.21553">
        <ele>903</ele>
        <time>2010-05-26T23:04:59Z</time>
      </trkpt>
      <trkpt lat="44.24927" lon="3.21428">
        <ele>904</ele>
        <time>2010-05-26T23:05:55Z</time>
      </trkpt>
      <trkpt lat="44.24966" lon="3.21404">
        <ele>903</ele>
        <time>2010-05-26T23:06:12Z</time>
      </trkpt>
      <trkpt lat="44.25026" lon="3.2141">
        <ele>907</ele>
        <time>2010-05-26T23:06:36Z</time>
      </trkpt>
      <trkpt lat="44.25067" lon="3.21298">
        <ele>909</ele>
        <time>2010-05-26T23:07:12Z</time>
      </trkpt>
      <trkpt lat="44.25065" lon="3.21234">
        <ele>911</ele>
        <time>2010-05-26T23:07:30Z</time>
      </trkpt>
      <trkpt lat="44.25088" lon="3.21153">
        <ele>912</ele>
        <time>2010-05-26T23:07:55Z</time>
      </trkpt>
      <trkpt lat="44.25122" lon="3.21122">
        <ele>912</ele>
        <time>2010-05-26T23:08:11Z</time>
      </trkpt>
      <trkpt lat="44.25149" lon="3.21043">
        <ele>908</ele>
        <time>2010-05-26T23:08:36Z</time>
      </trkpt>
      <trkpt lat="44.25209" lon="3.20991">
        <ele>897</ele>
        <time>2010-05-26T23:09:05Z</time>
      </trkpt>
      <trkpt lat="44.25217" lon="3.20972">
        <ele>897</ele>
        <time>2010-05-26T23:09:11Z</time>
      </trkpt>
      <trkpt lat="44.25279" lon="3.20961">
        <ele>888</ele>
        <time>2010-05-26T23:09:36Z</time>
      </trkpt>
      <trkpt lat="44.25324" lon="3.20936">
        <ele>881</ele>
        <time>2010-05-26T23:09:55Z</time>
      </trkpt>
      <trkpt lat="44.25351" lon="3.20948">
        <ele>875</ele>
        <time>2010-05-26T23:10:07Z</time>
      </trkpt>
      <trkpt lat="44.25379" lon="3.20989">
        <ele>862</ele>
        <time>2010-05-26T23:10:23Z</time>
      </trkpt>
      <trkpt lat="44.25408" lon="3.21008">
        <ele>854</ele>
        <time>2010-05-26T23:10:36Z</time>
      </trkpt>
      <trkpt lat="44.25447" lon="3.2101">
        <ele>852</ele>
        <time>2010-05-26T23:10:51Z</time>
      </trkpt>
      <trkpt lat="44.25502" lon="3.21039">
        <ele>849</ele>
        <time>2010-05-26T23:11:15Z</time>
      </trkpt>
      <trkpt lat="44.25524" lon="3.21023">
        <ele>852</ele>
        <time>2010-05-26T23:11:25Z</time>
      </trkpt>
      <trkpt lat="44.2566" lon="3.21106">
        <ele>853</ele>
        <time>2010-05-26T23:12:24Z</time>
      </trkpt>
      <trkpt lat="44.25697" lon="3.21149">
        <ele>855</ele>
        <time>2010-05-26T23:12:44Z</time>
      </trkpt>
      <trkpt lat="44.25711" lon="3.21247">
        <ele>846</ele>
        <time>2010-05-26T23:13:12Z</time>
      </trkpt>
      <trkpt lat="44.25805" lon="3.21313">
        <ele>850</ele>
        <time>2010-05-26T23:13:54Z</time>
      </trkpt>
      <trkpt lat="44.25721" lon="3.21389">
        <ele>845</ele>
        <time>2010-05-26T23:14:35Z</time>
      </trkpt>
      <trkpt lat="44.257" lon="3.21423">
        <ele>839</ele>
        <time>2010-05-26T23:14:48Z</time>
      </trkpt>
      <trkpt lat="44.25766" lon="3.2147">
        <ele>835</ele>
        <time>2010-05-26T23:15:17Z</time>
      </trkpt>
      <trkpt lat="44.25784" lon="3.21558">
        <ele>832</ele>
        <time>2010-05-26T23:15:44Z</time>
      </trkpt>
      <trkpt lat="44.2577" lon="3.21606">
        <ele>830</ele>
        <time>2010-05-26T23:15:58Z</time>
      </trkpt>
      <trkpt lat="44.25781" lon="3.21635">
        <ele>829</ele>
        <time>2010-05-26T23:16:08Z</time>
      </trkpt>
      <trkpt lat="44.25786" lon="3.21711">
        <ele>834</ele>
        <time>2010-05-26T23:16:30Z</time>
      </trkpt>
      <trkpt lat="44.25807" lon="3.21732">
        <ele>834</ele>
        <time>2010-05-26T23:16:40Z</time>
      </trkpt>
      <trkpt lat="44.25832" lon="3.21823">
        <ele>842</ele>
        <time>2010-05-26T23:17:08Z</time>
      </trkpt>
      <trkpt lat="44.25855" lon="3.21839">
        <ele>843</ele>
        <time>2010-05-26T23:17:18Z</time>
      </trkpt>
      <trkpt lat="44.25875" lon="3.21916">
        <ele>844</ele>
        <time>2010-05-26T23:17:42Z</time>
      </trkpt>
      <trkpt lat="44.25894" lon="3.21915">
        <ele>843</ele>
        <time>2010-05-26T23:17:49Z</time>
      </trkpt>
      <trkpt lat="44.26004" lon="3.21845">
        <ele>849</ele>
        <time>2010-05-26T23:18:38Z</time>
      </trkpt>
      <trkpt lat="44.26122" lon="3.21726">
        <ele>860</ele>
        <time>2010-05-26T23:19:36Z</time>
      </trkpt>
      <trkpt lat="44.26173" lon="3.217">
        <ele>873</ele>
        <time>2010-05-26T23:19:58Z</time>
      </trkpt>
      <trkpt lat="44.26222" lon="3.21702">
        <ele>878</ele>
        <time>2010-05-26T23:20:17Z</time>
      </trkpt>
      <trkpt lat="44.26275" lon="3.2166">
        <ele>885</ele>
        <time>2010-05-26T23:20:42Z</time>
      </trkpt>
      <trkpt lat="44.26335" lon="3.21659">
        <ele>884</ele>
        <time>2010-05-26T23:21:06Z</time>
      </trkpt>
      <trkpt lat="44.26408" lon="3.21623">
        <ele>879</ele>
        <time>2010-05-26T23:21:37Z</time>
      </trkpt>
      <trkpt lat="44.26468" lon="3.21534">
        <ele>868</ele>
        <time>2010-05-26T23:22:12Z</time>
      </trkpt>
      <trkpt lat="44.26519" lon="3.21517">
        <ele>858</ele>
        <time>2010-05-26T23:22:33Z</time>
      </trkpt>
      <trkpt lat="44.26536" lon="3.21482">
        <ele>854</ele>
        <time>2010-05-26T23:22:45Z</time>
      </trkpt>
      <trkpt lat="44.26572" lon="3.21485">
        <ele>850</ele>
        <time>2010-05-26T23:23:00Z</time>
      </trkpt>
      <trkpt lat="44.26644" lon="3.21458">
        <ele>838</ele>
        <time>2010-05-26T23:23:29Z</time>
      </trkpt>
      <trkpt lat="44.2673" lon="3.21495">
        <ele>838</ele>
        <time>2010-05-26T23:24:06Z</time>
      </trkpt>
      <trkpt lat="44.26757" lon="3.21477">
        <ele>830</ele>
        <time>2010-05-26T23:24:17Z</time>
      </trkpt>
      <trkpt lat="44.26778" lon="3.21479">
        <ele>826</ele>
        <time>2010-05-26T23:24:26Z</time>
      </trkpt>
      <trkpt lat="44.26769" lon="3.21569">
        <ele>829</ele>
        <time>2010-05-26T23:24:52Z</time>
      </trkpt>
      <trkpt lat="44.26811" lon="3.21612">
        <ele>840</ele>
        <time>2010-05-26T23:25:13Z</time>
      </trkpt>
      <trkpt lat="44.26831" lon="3.2161">
        <ele>844</ele>
        <time>2010-05-26T23:25:21Z</time>
      </trkpt>
      <trkpt lat="44.26904" lon="3.21545">
        <ele>851</ele>
        <time>2010-05-26T23:25:56Z</time>
      </trkpt>
      <trkpt lat="44.26942" lon="3.21531">
        <ele>858</ele>
        <time>2010-05-26T23:26:11Z</time>
      </trkpt>
      <trkpt lat="44.26981" lon="3.21468">
        <ele>853</ele>
        <time>2010-05-26T23:26:35Z</time>
      </trkpt>
      <trkpt lat="44.26931" lon="3.21446">
        <ele>848</ele>
        <time>2010-05-26T23:26:56Z</time>
      </trkpt>
      <trkpt lat="44.26935" lon="3.21403">
        <ele>859</ele>
        <time>2010-05-26T23:27:08Z</time>
      </trkpt>
      <trkpt lat="44.27045" lon="3.21344">
        <ele>877</ele>
        <time>2010-05-26T23:27:55Z</time>
      </trkpt>
      <trkpt lat="44.27103" lon="3.21288">
        <ele>871</ele>
        <time>2010-05-26T23:28:24Z</time>
      </trkpt>
      <trkpt lat="44.2711" lon="3.21269">
        <ele>871</ele>
        <time>2010-05-26T23:28:30Z</time>
      </trkpt>
      <trkpt lat="44.27081" lon="3.21303">
        <ele>871</ele>
        <time>2010-05-26T23:28:45Z</time>
      </trkpt>
      <trkpt lat="44.27127" lon="3.21356">
        <ele>871</ele>
        <time>2010-05-26T23:29:08Z</time>
      </trkpt>
      <trkpt lat="44.27225" lon="3.21363">
        <ele>868</ele>
        <time>2010-05-26T23:29:48Z</time>
      </trkpt>
      <trkpt lat="44.27261" lon="3.21343">
        <ele>864</ele>
        <time>2010-05-26T23:30:03Z</time>
      </trkpt>
      <trkpt lat="44.27271" lon="3.21354">
        <ele>864</ele>
        <time>2010-05-26T23:30:08Z</time>
      </trkpt>
      <trkpt lat="44.27275" lon="3.21474">
        <ele>857</ele>
        <time>2010-05-26T23:30:43Z</time>
      </trkpt>
      <trkpt lat="44.27297" lon="3.21525">
        <ele>855</ele>
        <time>2010-05-26T23:31:00Z</time>
      </trkpt>
      <trkpt lat="44.27308" lon="3.21594">
        <ele>853</ele>
        <time>2010-05-26T23:31:20Z</time>
      </trkpt>
      <trkpt lat="44.27333" lon="3.21603">
        <ele>852</ele>
        <time>2010-05-26T23:31:30Z</time>
      </trkpt>
      <trkpt lat="44.27343" lon="3.21588">
        <ele>851</ele>
        <time>2010-05-26T23:31:36Z</time>
      </trkpt>
      <trkpt lat="44.27399" lon="3.21572">
        <ele>849</ele>
        <time>2010-05-26T23:31:59Z</time>
      </trkpt>
      <trkpt lat="44.27396" lon="3.21584">
        <ele>849</ele>
        <time>2010-05-26T23:32:02Z</time>
      </trkpt>
      <trkpt lat="44.27388" lon="3.21564">
        <ele>849</ele>
        <time>2010-05-26T23:32:09Z</time>
      </trkpt>
      <trkpt lat="44.27293" lon="3.21514">
        <ele>855</ele>
        <time>2010-05-26T23:32:49Z</time>
      </trkpt>
      <trkpt lat="44.2733" lon="3.21539">
        <ele>851</ele>
        <time>2010-05-26T23:33:06Z</time>
      </trkpt>
      <trkpt lat="44.27397" lon="3.2156">
        <ele>848</ele>
        <time>2010-05-26T23:33:33Z</time>
      </trkpt>
      <trkpt lat="44.2747" lon="3.21514">
        <ele>847</ele>
        <time>2010-05-26T23:34:05Z</time>
      </trkpt>
      <trkpt lat="44.27537" lon="3.21408">
        <ele>852</ele>
        <time>2010-05-26T23:34:46Z</time>
      </trkpt>
      <trkpt lat="44.27537" lon="3.2135">
        <ele>852</ele>
        <time>2010-05-26T23:35:02Z</time>
      </trkpt>
      <trkpt lat="44.27515" lon="3.21263">
        <ele>857</ele>
        <time>2010-05-26T23:35:29Z</time>
      </trkpt>
      <trkpt lat="44.27478" lon="3.21223">
        <ele>863</ele>
        <time>2010-05-26T23:35:48Z</time>
      </trkpt>
      <trkpt lat="44.27428" lon="3.21197">
        <ele>865</ele>
        <time>2010-05-26T23:36:09Z</time>
      </trkpt>
      <trkpt lat="44.27383" lon="3.21179">
        <ele>869</ele>
        <time>2010-05-26T23:36:28Z</time>
      </trkpt>
      <trkpt lat="44.27352" lon="3.21183">
        <ele>870</ele>
        <time>2010-05-26T23:36:40Z</time>
      </trkpt>
      <trkpt lat="44.27351" lon="3.21149">
        <ele>875</ele>
        <time>2010-05-26T23:36:49Z</time>
      </trkpt>
      <trkpt lat="44.27319" lon="3.21121">
        <ele>883</ele>
        <time>2010-05-26T23:37:05Z</time>
      </trkpt>
      <trkpt lat="44.27325" lon="3.21059">
        <ele>887</ele>
        <time>2010-05-26T23:37:23Z</time>
      </trkpt>
      <trkpt lat="44.27305" lon="3.21051">
        <ele>888</ele>
        <time>2010-05-26T23:37:31Z</time>
      </trkpt>
      <trkpt lat="44.27259" lon="3.21072">
        <ele>890</ele>
        <time>2010-05-26T23:37:51Z</time>
      </trkpt>
      <trkpt lat="44.27178" lon="3.21074">
        <ele>892</ele>
        <time>2010-05-26T23:38:23Z</time>
      </trkpt>
      <trkpt lat="44.27081" lon="3.21036">
        <ele>894</ele>
        <time>2010-05-26T23:39:03Z</time>
      </trkpt>
      <trkpt lat="44.26926" lon="3.21034">
        <ele>895</ele>
        <time>2010-05-26T23:40:05Z</time>
      </trkpt>
      <trkpt lat="44.26833" lon="3.21069">
        <ele>894</ele>
        <time>2010-05-26T23:40:44Z</time>
      </trkpt>
      <trkpt lat="44.26794" lon="3.21109">
        <ele>896</ele>
        <time>2010-05-26T23:41:03Z</time>
      </trkpt>
      <trkpt lat="44.26666" lon="3.21113">
        <ele>901</ele>
        <time>2010-05-26T23:41:55Z</time>
      </trkpt>
      <trkpt lat="44.26604" lon="3.21136">
        <ele>898</ele>
        <time>2010-05-26T23:42:20Z</time>
      </trkpt>
      <trkpt lat="44.26558" lon="3.21208">
        <ele>891</ele>
        <time>2010-05-26T23:42:48Z</time>
      </trkpt>
      <trkpt lat="44.26435" lon="3.21333">
        <ele>887</ele>
        <time>2010-05-26T23:43:49Z</time>
      </trkpt>
      <trkpt lat="44.26355" lon="3.21494">
        <ele>890</ele>
        <time>2010-05-26T23:44:45Z</time>
      </trkpt>
      <trkpt lat="44.26284" lon="3.21576">
        <ele>885</ele>
        <time>2010-05-26T23:45:22Z</time>
      </trkpt>
      <trkpt lat="44.26297" lon="3.21597">
        <ele>885</ele>
        <time>2010-05-26T23:45:30Z</time>
      </trkpt>
      <trkpt lat="44.26313" lon="3.21595">
        <ele>885</ele>
        <time>2010-05-26T23:45:37Z</time>
      </trkpt>
      <trkpt lat="44.26286" lon="3.2159">
        <ele>884</ele>
        <time>2010-05-26T23:45:48Z</time>
      </trkpt>
      <trkpt lat="44.26269" lon="3.21614">
        <ele>883</ele>
        <time>2010-05-26T23:45:57Z</time>
      </trkpt>
      <trkpt lat="44.26268" lon="3.21665">
        <ele>880</ele>
        <time>2010-05-26T23:46:12Z</time>
      </trkpt>
      <trkpt lat="44.26222" lon="3.21701">
        <ele>873</ele>
        <time>2010-05-26T23:46:33Z</time>
      </trkpt>
      <trkpt lat="44.26181" lon="3.21698">
        <ele>870</ele>
        <time>2010-05-26T23:46:49Z</time>
      </trkpt>
      <trkpt lat="44.26136" lon="3.2173">
        <ele>858</ele>
        <time>2010-05-26T23:47:09Z</time>
      </trkpt>
      <trkpt lat="44.26097" lon="3.21739">
        <ele>851</ele>
        <time>2010-05-26T23:47:25Z</time>
      </trkpt>
      <trkpt lat="44.26008" lon="3.21842">
        <ele>845</ele>
        <time>2010-05-26T23:48:12Z</time>
      </trkpt>
      <trkpt lat="44.25891" lon="3.21919">
        <ele>837</ele>
        <time>2010-05-26T23:49:03Z</time>
      </trkpt>
      <trkpt lat="44.25844" lon="3.21899">
        <ele>839</ele>
        <time>2010-05-26T23:49:23Z</time>
      </trkpt>
      <trkpt lat="44.25829" lon="3.21841">
        <ele>836</ele>
        <time>2010-05-26T23:49:41Z</time>
      </trkpt>
      <trkpt lat="44.25737" lon="3.21786">
        <ele>836</ele>
        <time>2010-05-26T23:50:21Z</time>
      </trkpt>
      <trkpt lat="44.25655" lon="3.21691">
        <ele>836</ele>
        <time>2010-05-26T23:51:03Z</time>
      </trkpt>
      <trkpt lat="44.2563" lon="3.21632">
        <ele>838</ele>
        <time>2010-05-26T23:51:23Z</time>
      </trkpt>
      <trkpt lat="44.25647" lon="3.21486">
        <ele>842</ele>
        <time>2010-05-26T23:52:05Z</time>
      </trkpt>
      <trkpt lat="44.2561" lon="3.21375">
        <ele>844</ele>
        <time>2010-05-26T23:52:40Z</time>
      </trkpt>
      <trkpt lat="44.25585" lon="3.21356">
        <ele>842</ele>
        <time>2010-05-26T23:52:52Z</time>
      </trkpt>
      <trkpt lat="44.25481" lon="3.21331">
        <ele>843</ele>
        <time>2010-05-26T23:53:34Z</time>
      </trkpt>
      <trkpt lat="44.25446" lon="3.21336">
        <ele>843</ele>
        <time>2010-05-26T23:53:48Z</time>
      </trkpt>
      <trkpt lat="44.2537" lon="3.21399">
        <ele>847</ele>
        <time>2010-05-26T23:54:24Z</time>
      </trkpt>
      <trkpt lat="44.25328" lon="3.21409">
        <ele>849</ele>
        <time>2010-05-26T23:54:40Z</time>
      </trkpt>
      <trkpt lat="44.25319" lon="3.21436">
        <ele>849</ele>
        <time>2010-05-26T23:54:49Z</time>
      </trkpt>
      <trkpt lat="44.25333" lon="3.21544">
        <ele>855</ele>
        <time>2010-05-26T23:55:21Z</time>
      </trkpt>
      <trkpt lat="44.25298" lon="3.21628">
        <ele>865</ele>
        <time>2010-05-26T23:55:49Z</time>
      </trkpt>
      <trkpt lat="44.25293" lon="3.21706">
        <ele>856</ele>
        <time>2010-05-26T23:56:11Z</time>
      </trkpt>
      <trkpt lat="44.25243" lon="3.2173">
        <ele>859</ele>
        <time>2010-05-26T23:56:32Z</time>
      </trkpt>
      <trkpt lat="44.25212" lon="3.21723">
        <ele>861</ele>
        <time>2010-05-26T23:56:45Z</time>
      </trkpt>
      <trkpt lat="44.25171" lon="3.21766">
        <ele>864</ele>
        <time>2010-05-26T23:57:05Z</time>
      </trkpt>
      <trkpt lat="44.25163" lon="3.2179">
        <ele>861</ele>
        <time>2010-05-26T23:57:13Z</time>
      </trkpt>
      <trkpt lat="44.25168" lon="3.21863">
        <ele>865</ele>
        <time>2010-05-26T23:57:34Z</time>
      </trkpt>
      <trkpt lat="44.25141" lon="3.21922">
        <ele>866</ele>
        <time>2010-05-26T23:57:54Z</time>
      </trkpt>
      <trkpt lat="44.25092" lon="3.21968">
        <ele>868</ele>
        <time>2010-05-26T23:58:17Z</time>
      </trkpt>
      <trkpt lat="44.25043" lon="3.21967">
        <ele>873</ele>
        <time>2010-05-26T23:58:37Z</time>
      </trkpt>
      <trkpt lat="44.24974" lon="3.22003">
        <ele>875</ele>
        <time>2010-05-26T23:59:07Z</time>
      </trkpt>
      <trkpt lat="44.24946" lon="3.21976">
        <ele>880</ele>
        <time>2010-05-26T23:59:20Z</time>
      </trkpt>
      <trkpt lat="44.24839" lon="3.22002">
        <ele>872</ele>
        <time>2010-05-27T00:00:04Z</time>
      </trkpt>
      <trkpt lat="44.2483" lon="3.2203">
        <ele>864</ele>
        <time>2010-05-27T00:00:13Z</time>
      </trkpt>
      <trkpt lat="44.24816" lon="3.22132">
        <ele>871</ele>
        <time>2010-05-27T00:00:42Z</time>
      </trkpt>
      <trkpt lat="44.24781" lon="3.22167">
        <ele>871</ele>
        <time>2010-05-27T00:01:00Z</time>
      </trkpt>
      <trkpt lat="44.24741" lon="3.22176">
        <ele>867</ele>
        <time>2010-05-27T00:01:16Z</time>
      </trkpt>
      <trkpt lat="44.24712" lon="3.22198">
        <ele>864</ele>
        <time>2010-05-27T00:01:29Z</time>
      </trkpt>
      <trkpt lat="44.2466" lon="3.22198">
        <ele>866</ele>
        <time>2010-05-27T00:01:50Z</time>
      </trkpt>
      <trkpt lat="44.24666" lon="3.22135">
        <ele>866</ele>
        <time>2010-05-27T00:02:08Z</time>
      </trkpt>
      <trkpt lat="44.24646" lon="3.22116">
        <ele>869</ele>
        <time>2010-05-27T00:02:18Z</time>
      </trkpt>
      <trkpt lat="44.24544" lon="3.22129">
        <ele>883</ele>
        <time>2010-05-27T00:02:59Z</time>
      </trkpt>
      <trkpt lat="44.2443" lon="3.22093">
        <ele>884</ele>
        <time>2010-05-27T00:03:46Z</time>
      </trkpt>
      <trkpt lat="44.24366" lon="3.22099">
        <ele>882</ele>
        <time>2010-05-27T00:04:11Z</time>
      </trkpt>
      <trkpt lat="44.24324" lon="3.22066">
        <ele>875</ele>
        <time>2010-05-27T00:04:30Z</time>
      </trkpt>
      <trkpt lat="44.243" lon="3.22065">
        <ele>874</ele>
        <time>2010-05-27T00:04:40Z</time>
      </trkpt>
      <trkpt lat="44.24253" lon="3.22084">
        <ele>871</ele>
        <time>2010-05-27T00:05:00Z</time>
      </trkpt>
      <trkpt lat="44.24212" lon="3.22075">
        <ele>870</ele>
        <time>2010-05-27T00:05:16Z</time>
      </trkpt>
      <trkpt lat="44.24215" lon="3.22143">
        <ele>873</ele>
        <time>2010-05-27T00:05:36Z</time>
      </trkpt>
      <trkpt lat="44.24175" lon="3.22162">
        <ele>871</ele>
        <time>2010-05-27T00:05:53Z</time>
      </trkpt>
      <trkpt lat="44.24114" lon="3.22094">
        <ele>875</ele>
        <time>2010-05-27T00:06:24Z</time>
      </trkpt>
      <trkpt lat="44.24092" lon="3.22103">
        <ele>877</ele>
        <time>2010-05-27T00:06:33Z</time>
      </trkpt>
      <trkpt lat="44.24125" lon="3.22195">
        <ele>875</ele>
        <time>2010-05-27T00:07:02Z</time>
      </trkpt>
      <trkpt lat="44.24119" lon="3.22222">
        <ele>875</ele>
        <time>2010-05-27T00:07:10Z</time>
      </trkpt>
      <trkpt lat="44.24036" lon="3.22259">
        <ele>878</ele>
        <time>2010-05-27T00:07:45Z</time>
      </trkpt>
      <trkpt lat="44.23995" lon="3.22257">
        <ele>873</ele>
        <time>2010-05-27T00:08:01Z</time>
      </trkpt>
      <trkpt lat="44.23971" lon="3.22216">
        <ele>871</ele>
        <time>2010-05-27T00:08:17Z</time>
      </trkpt>
      <trkpt lat="44.239" lon="3.22192">
        <ele>874</ele>
        <time>2010-05-27T00:08:46Z</time>
      </trkpt>
      <trkpt lat="44.23814" lon="3.22225">
        <ele>862</ele>
        <time>2010-05-27T00:09:22Z</time>
      </trkpt>
      <trkpt lat="44.2379" lon="3.22224">
        <ele>860</ele>
        <time>2010-05-27T00:09:31Z</time>
      </trkpt>
      <trkpt lat="44.23743" lon="3.22114">
        <ele>870</ele>
        <time>2010-05-27T00:10:08Z</time>
      </trkpt>
      <trkpt lat="44.23681" lon="3.22112">
        <ele>871</ele>
        <time>2010-05-27T00:10:33Z</time>
      </trkpt>
      <trkpt lat="44.23596" lon="3.22024">
        <ele>877</ele>
        <time>2010-05-27T00:11:15Z</time>
      </trkpt>
      <trkpt lat="44.23561" lon="3.22038">
        <ele>877</ele>
        <time>2010-05-27T00:11:30Z</time>
      </trkpt>
      <trkpt lat="44.23561" lon="3.22007">
        <ele>883</ele>
        <time>2010-05-27T00:11:39Z</time>
      </trkpt>
      <trkpt lat="44.23547" lon="3.22001">
        <ele>885</ele>
        <time>2010-05-27T00:11:44Z</time>
      </trkpt>
      <trkpt lat="44.23475" lon="3.22037">
        <ele>875</ele>
        <time>2010-05-27T00:12:15Z</time>
      </trkpt>
      <trkpt lat="44.23444" lon="3.2203">
        <ele>872</ele>
        <time>2010-05-27T00:12:28Z</time>
      </trkpt>
      <trkpt lat="44.23392" lon="3.22072">
        <ele>860</ele>
        <time>2010-05-27T00:12:51Z</time>
      </trkpt>
      <trkpt lat="44.23273" lon="3.22094">
        <ele>836</ele>
        <time>2010-05-27T00:13:40Z</time>
      </trkpt>
      <trkpt lat="44.23237" lon="3.22077">
        <ele>826</ele>
        <time>2010-05-27T00:13:55Z</time>
      </trkpt>
      <trkpt lat="44.23205" lon="3.22081">
        <ele>820</ele>
        <time>2010-05-27T00:14:08Z</time>
      </trkpt>
      <trkpt lat="44.23175" lon="3.22026">
        <ele>815</ele>
        <time>2010-05-27T00:14:28Z</time>
      </trkpt>
      <trkpt lat="44.23122" lon="3.22016">
        <ele>813</ele>
        <time>2010-05-27T00:14:49Z</time>
      </trkpt>
      <trkpt lat="44.23088" lon="3.22072">
        <ele>812</ele>
        <time>2010-05-27T00:15:10Z</time>
      </trkpt>
      <trkpt lat="44.22993" lon="3.22133">
        <ele>806</ele>
        <time>2010-05-27T00:15:52Z</time>
      </trkpt>
      <trkpt lat="44.22945" lon="3.22125">
        <ele>797</ele>
        <time>2010-05-27T00:16:12Z</time>
      </trkpt>
      <trkpt lat="44.2288" lon="3.22081">
        <ele>782</ele>
        <time>2010-05-27T00:16:41Z</time>
      </trkpt>
      <trkpt lat="44.22834" lon="3.2207">
        <ele>774</ele>
        <time>2010-05-27T00:16:59Z</time>
      </trkpt>
      <trkpt lat="44.2286" lon="3.22098">
        <ele>770</ele>
        <time>2010-05-27T00:17:13Z</time>
      </trkpt>
      <trkpt lat="44.22858" lon="3.2214">
        <ele>763</ele>
        <time>2010-05-27T00:17:25Z</time>
      </trkpt>
      <trkpt lat="44.22878" lon="3.22186">
        <ele>756</ele>
        <time>2010-05-27T00:17:40Z</time>
      </trkpt>
      <trkpt lat="44.22875" lon="3.22208">
        <ele>750</ele>
        <time>2010-05-27T00:17:46Z</time>
      </trkpt>
      <trkpt lat="44.22817" lon="3.22172">
        <ele>742</ele>
        <time>2010-05-27T00:18:12Z</time>
      </trkpt>
      <trkpt lat="44.22754" lon="3.2207">
        <ele>727</ele>
        <time>2010-05-27T00:18:50Z</time>
      </trkpt>
      <trkpt lat="44.22725" lon="3.21977">
        <ele>712</ele>
        <time>2010-05-27T00:19:19Z</time>
      </trkpt>
      <trkpt lat="44.22716" lon="3.21982">
        <ele>708</ele>
        <time>2010-05-27T00:19:23Z</time>
      </trkpt>
      <trkpt lat="44.22724" lon="3.21949">
        <ele>696</ele>
        <time>2010-05-27T00:19:33Z</time>
      </trkpt>
      <trkpt lat="44.22722" lon="3.21896">
        <ele>690</ele>
        <time>2010-05-27T00:19:48Z</time>
      </trkpt>
      <trkpt lat="44.22701" lon="3.21897">
        <ele>690</ele>
        <time>2010-05-27T00:19:57Z</time>
      </trkpt>
      <trkpt lat="44.22702" lon="3.21906">
        <ele>690</ele>
        <time>2010-05-27T00:20:00Z</time>
      </trkpt>
      <trkpt lat="44.22626" lon="3.21861">
        <ele>688</ele>
        <time>2010-05-27T00:20:33Z</time>
      </trkpt>
      <trkpt lat="44.22543" lon="3.21784">
        <ele>681</ele>
        <time>2010-05-27T00:21:12Z</time>
      </trkpt>
      <trkpt lat="44.22528" lon="3.21734">
        <ele>678</ele>
        <time>2010-05-27T00:21:28Z</time>
      </trkpt>
      <trkpt lat="44.22483" lon="3.21706">
        <ele>673</ele>
        <time>2010-05-27T00:21:48Z</time>
      </trkpt>
      <trkpt lat="44.22432" lon="3.21569">
        <ele>672</ele>
        <time>2010-05-27T00:22:32Z</time>
      </trkpt>
      <trkpt lat="44.22423" lon="3.21514">
        <ele>673</ele>
        <time>2010-05-27T00:22:48Z</time>
      </trkpt>
      <trkpt lat="44.2237" lon="3.21488">
        <ele>680</ele>
        <time>2010-05-27T00:23:11Z</time>
      </trkpt>
      <trkpt lat="44.22331" lon="3.21424">
        <ele>687</ele>
        <time>2010-05-27T00:23:35Z</time>
      </trkpt>
      <trkpt lat="44.2232" lon="3.2134">
        <ele>695</ele>
        <time>2010-05-27T00:23:59Z</time>
      </trkpt>
      <trkpt lat="44.22274" lon="3.21287">
        <ele>696</ele>
        <time>2010-05-27T00:24:23Z</time>
      </trkpt>
      <trkpt lat="44.22252" lon="3.21307">
        <ele>700</ele>
        <time>2010-05-27T00:24:34Z</time>
      </trkpt>
      <trkpt lat="44.22174" lon="3.2131">
        <ele>710</ele>
        <time>2010-05-27T00:25:05Z</time>
      </trkpt>
      <trkpt lat="44.22126" lon="3.21342">
        <ele>709</ele>
        <time>2010-05-27T00:25:26Z</time>
      </trkpt>
      <trkpt lat="44.22038" lon="3.21465">
        <ele>699</ele>
        <time>2010-05-27T00:26:16Z</time>
      </trkpt>
      <trkpt lat="44.21997" lon="3.21499">
        <ele>699</ele>
        <time>2010-05-27T00:26:35Z</time>
      </trkpt>
      <trkpt lat="44.21975" lon="3.21562">
        <ele>697</ele>
        <time>2010-05-27T00:26:55Z</time>
      </trkpt>
      <trkpt lat="44.21936" lon="3.21553">
        <ele>697</ele>
        <time>2010-05-27T00:27:11Z</time>
      </trkpt>
      <trkpt lat="44.21834" lon="3.21595">
        <ele>693</ele>
        <time>2010-05-27T00:27:53Z</time>
      </trkpt>
      <trkpt lat="44.21814" lon="3.21627">
        <ele>691</ele>
        <time>2010-05-27T00:28:05Z</time>
      </trkpt>
      <trkpt lat="44.21776" lon="3.21604">
        <ele>689</ele>
        <time>2010-05-27T00:28:22Z</time>
      </trkpt>
      <trkpt lat="44.21747" lon="3.21639">
        <ele>681</ele>
        <time>2010-05-27T00:28:37Z</time>
      </trkpt>
      <trkpt lat="44.21703" lon="3.21645">
        <ele>674</ele>
        <time>2010-05-27T00:28:55Z</time>
      </trkpt>
      <trkpt lat="44.21688" lon="3.21687">
        <ele>672</ele>
        <time>2010-05-27T00:29:09Z</time>
      </trkpt>
      <trkpt lat="44.21665" lon="3.21713">
        <ele>676</ele>
        <time>2010-05-27T00:29:20Z</time>
      </trkpt>
      <trkpt lat="44.21668" lon="3.21795">
        <ele>678</ele>
        <time>2010-05-27T00:29:44Z</time>
      </trkpt>
      <trkpt lat="44.21636" lon="3.21835">
        <ele>680</ele>
        <time>2010-05-27T00:30:01Z</time>
      </trkpt>
      <trkpt lat="44.21595" lon="3.21925">
        <ele>679</ele>
        <time>2010-05-27T00:30:32Z</time>
      </trkpt>
      <trkpt lat="44.21579" lon="3.21932">
        <ele>677</ele>
        <time>2010-05-27T00:30:39Z</time>
      </trkpt>
      <trkpt lat="44.21544" lon="3.21896">
        <ele>675</ele>
        <time>2010-05-27T00:30:56Z</time>
      </trkpt>
      <trkpt lat="44.21488" lon="3.21877">
        <ele>672</ele>
        <time>2010-05-27T00:31:19Z</time>
      </trkpt>
      <trkpt lat="44.21433" lon="3.21879">
        <ele>668</ele>
        <time>2010-05-27T00:31:41Z</time>
      </trkpt>
      <trkpt lat="44.21399" lon="3.21807">
        <ele>668</ele>
        <time>2010-05-27T00:32:06Z</time>
      </trkpt>
      <trkpt lat="44.21369" lon="3.21787">
        <ele>667</ele>
        <time>2010-05-27T00:32:19Z</time>
      </trkpt>
      <trkpt lat="44.21354" lon="3.21759">
        <ele>666</ele>
        <time>2010-05-27T00:32:29Z</time>
      </trkpt>
      <trkpt lat="44.21323" lon="3.21759">
        <ele>665</ele>
        <time>2010-05-27T00:32:42Z</time>
      </trkpt>
      <trkpt lat="44.21274" lon="3.2181">
        <ele>664</ele>
        <time>2010-05-27T00:33:06Z</time>
      </trkpt>
      <trkpt lat="44.2124" lon="3.21804">
        <ele>659</ele>
        <time>2010-05-27T00:33:20Z</time>
      </trkpt>
      <trkpt lat="44.21188" lon="3.2177">
        <ele>657</ele>
        <time>2010-05-27T00:33:43Z</time>
      </trkpt>
      <trkpt lat="44.2114" lon="3.21777">
        <ele>649</ele>
        <time>2010-05-27T00:34:02Z</time>
      </trkpt>
      <trkpt lat="44.21075" lon="3.21755">
        <ele>643</ele>
        <time>2010-05-27T00:34:29Z</time>
      </trkpt>
      <trkpt lat="44.21021" lon="3.21653">
        <ele>644</ele>
        <time>2010-05-27T00:35:05Z</time>
      </trkpt>
      <trkpt lat="44.21092" lon="3.21565">
        <ele>648</ele>
        <time>2010-05-27T00:35:43Z</time>
      </trkpt>
      <trkpt lat="44.21117" lon="3.21508">
        <ele>645</ele>
        <time>2010-05-27T00:36:03Z</time>
      </trkpt>
      <trkpt lat="44.21102" lon="3.21451">
        <ele>647</ele>
        <time>2010-05-27T00:36:20Z</time>
      </trkpt>
      <trkpt lat="44.21109" lon="3.21374">
        <ele>646</ele>
        <time>2010-05-27T00:36:42Z</time>
      </trkpt>
      <trkpt lat="44.21096" lon="3.21331">
        <ele>645</ele>
        <time>2010-05-27T00:36:56Z</time>
      </trkpt>
      <trkpt lat="44.21064" lon="3.2131">
        <ele>644</ele>
        <time>2010-05-27T00:37:10Z</time>
      </trkpt>
      <trkpt lat="44.21012" lon="3.213">
        <ele>638</ele>
        <time>2010-05-27T00:37:31Z</time>
      </trkpt>
      <trkpt lat="44.20937" lon="3.21257">
        <ele>638</ele>
        <time>2010-05-27T00:38:03Z</time>
      </trkpt>
      <trkpt lat="44.20873" lon="3.21252">
        <ele>635</ele>
        <time>2010-05-27T00:38:29Z</time>
      </trkpt>
      <trkpt lat="44.20853" lon="3.21234">
        <ele>632</ele>
        <time>2010-05-27T00:38:38Z</time>
      </trkpt>
      <trkpt lat="44.20859" lon="3.21086">
        <ele>625</ele>
        <time>2010-05-27T00:39:21Z</time>
      </trkpt>
      <trkpt lat="44.20766" lon="3.21015">
        <ele>621</ele>
        <time>2010-05-27T00:40:04Z</time>
      </trkpt>
      <trkpt lat="44.20742" lon="3.21004">
        <ele>619</ele>
        <time>2010-05-27T00:40:13Z</time>
      </trkpt>
      <trkpt lat="44.2067" lon="3.21055">
        <ele>613</ele>
        <time>2010-05-27T00:40:46Z</time>
      </trkpt>
      <trkpt lat="44.20481" lon="3.21264">
        <ele>602</ele>
        <time>2010-05-27T00:42:23Z</time>
      </trkpt>
      <trkpt lat="44.20433" lon="3.21265">
        <ele>598</ele>
        <time>2010-05-27T00:42:42Z</time>
      </trkpt>
      <trkpt lat="44.20297" lon="3.21188">
        <ele>591</ele>
        <time>2010-05-27T00:43:41Z</time>
      </trkpt>
      <trkpt lat="44.20291" lon="3.21081">
        <ele>589</ele>
        <time>2010-05-27T00:44:11Z</time>
      </trkpt>
      <trkpt lat="44.20272" lon="3.21057">
        <ele>588</ele>
        <time>2010-05-27T00:44:22Z</time>
      </trkpt>
      <trkpt lat="44.20157" lon="3.20998">
        <ele>587</ele>
        <time>2010-05-27T00:45:11Z</time>
      </trkpt>
      <trkpt lat="44.2007" lon="3.20991">
        <ele>589</ele>
        <time>2010-05-27T00:45:46Z</time>
      </trkpt>
      <trkpt lat="44.20043" lon="3.20999">
        <ele>571.2</ele>
      </trkpt>
      <trkpt lat="44.20002" lon="3.20977">
        <ele>573.7</ele>
      </trkpt>
      <trkpt lat="44.19944" lon="3.20949">
        <ele>574.8</ele>
      </trkpt>
      <trkpt lat="44.19928" lon="3.20911">
        <ele>570.8</ele>
      </trkpt>
      <trkpt lat="44.19901" lon="3.2086">
        <ele>566.9</ele>
      </trkpt>
      <trkpt lat="44.1988" lon="3.20809">
        <ele>567.2</ele>
      </trkpt>
      <trkpt lat="44.1986" lon="3.20762">
        <ele>567.3</ele>
      </trkpt>
      <trkpt lat="44.1985" lon="3.20721">
        <ele>563.9</ele>
        <time>2010-05-27T00:45:53Z</time>
      </trkpt>
      <trkpt lat="44.1986" lon="3.20691">
        <ele>564.1</ele>
      </trkpt>
      <trkpt lat="44.19867" lon="3.20659">
        <ele>562.9</ele>
      </trkpt>
      <trkpt lat="44.19866" lon="3.2061">
        <ele>560.2</ele>
      </trkpt>
      <trkpt lat="44.19851" lon="3.20545">
        <ele>551.3</ele>
      </trkpt>
      <trkpt lat="44.19846" lon="3.20493">
        <ele>545.8</ele>
      </trkpt>
      <trkpt lat="44.19863" lon="3.20454">
        <ele>546.5</ele>
      </trkpt>
      <trkpt lat="44.19855" lon="3.20427">
        <ele>537.2</ele>
      </trkpt>
      <trkpt lat="44.19859" lon="3.20375">
        <ele>530.3</ele>
      </trkpt>
      <trkpt lat="44.19848" lon="3.20344">
        <ele>520.8</ele>
      </trkpt>
      <trkpt lat="44.19856" lon="3.20285">
        <ele>516.3</ele>
      </trkpt>
      <trkpt lat="44.1985" lon="3.20221">
        <ele>501.9</ele>
      </trkpt>
      <trkpt lat="44.1987" lon="3.20124">
        <ele>488.5</ele>
      </trkpt>
      <trkpt lat="44.19917" lon="3.20072">
        <ele>485.5</ele>
      </trkpt>
      <trkpt lat="44.19937" lon="3.19975">
        <ele>485.2</ele>
      </trkpt>
      <trkpt lat="44.19954" lon="3.19934">
        <ele>484.1</ele>
      </trkpt>
      <trkpt lat="44.19966" lon="3.19861">
        <ele>473</ele>
      </trkpt>
      <trkpt lat="44.20006" lon="3.19834">
        <ele>475.3</ele>
      </trkpt>
      <trkpt lat="44.20037" lon="3.19788">
        <ele>475.9</ele>
      </trkpt>
      <trkpt lat="44.20049" lon="3.1974">
        <ele>479.7</ele>
      </trkpt>
      <trkpt lat="44.20033" lon="3.19679">
        <ele>481</ele>
      </trkpt>
      <trkpt lat="44.2006" lon="3.19625">
        <ele>487.1</ele>
      </trkpt>
      <trkpt lat="44.2007" lon="3.19568">
        <ele>486.3</ele>
      </trkpt>
      <trkpt lat="44.20173" lon="3.1948">
        <ele>494.3</ele>
      </trkpt>
      <trkpt lat="44.20202" lon="3.19429">
        <ele>498.5</ele>
      </trkpt>
      <trkpt lat="44.20272" lon="3.19345">
        <ele>497.3</ele>
      </trkpt>
      <trkpt lat="44.20298" lon="3.1939">
        <ele>511.5</ele>
      </trkpt>
      <trkpt lat="44.20315" lon="3.19409">
        <ele>515.4</ele>
      </trkpt>
      <trkpt lat="44.2034" lon="3.19422">
        <ele>516.1</ele>
        <time>2010-05-27T00:46:31Z</time>
      </trkpt>
    </trkseg>
  </trk>
</gpx>